Terminal Aerodrome Forecast
Issued by NWS

Home | Current Version | Previous Version | Text Only | Print | Product List | Glossary On
Versions: 1 2 3 4 5 6 7 8 9 10 11 12 13 14 15 16 17 18 19 20 21 22 23 24
210
FTUS43 KGLD 202324
TAFMCK
TAF
KMCK 202324Z 2100/2124 18022G32KT P6SM SCT250
     FM210100 20013G20KT P6SM SCT200 WS020/20045KT
     FM211000 28012G18KT P6SM SCT250 WS020/32040KT
     FM211400 32020G35KT P6SM SCT150=

USA.gov is the U.S. government's official web portal to all federal, state and local government web resources and services.